Latest Coastal Weather Observations for Lord Howe Island

IDN60701

Issued at 3:41 am EST Saturday 29 April 2017 (issued every 10 minutes, with the page automatically refreshed every 10 minutes)

About coastal observations | Map of coastal stations | Coastal observations for NSW | Marine services | Other Formats
Station Details ID: 200839 Name: LORD HOWE ISLAND AERO Lat: -31.54 Lon: 159.08 Height: 5.0 m
Data from the previous 72 hours. | See also: Recent months at Lord Howe Island
Date/Time
EST
Temp
°C
Wind Pressure Rain since
9am
mm
Weather Cloud Vis
km
Sea
Height
m
Swell
Dir  Spd
kts
Gust
kts
hPa Trend Height
m
Period
s
Dir
29/03:30am 18.6 ESE 5 10 1013.2 - 5.8 - Partly cloudy 10 - - - -
29/03:00am 19.0 S 5 9 1013.2 - 5.8 - Cloudy 10 - - - -
29/02:30am 18.8 SE 5 12 1013.4 - 5.8 - Mostly cloudy 10 - - - -
29/02:00am 18.5 SE 6 10 1013.3 - 5.8 - Partly cloudy 10 - - - -
29/01:30am 18.7 E 6 15 1013.3 - 5.8 - Partly cloudy 10 - - - -
29/01:00am 18.8 SSE 6 13 1013.6 - 5.8 - Partly cloudy 10 - - - -
29/12:30am 18.9 ESE 5 7 1013.5 - 5.8 - Partly cloudy 10 - - - -
29/12:00am 18.9 ESE 6 12 1013.4 - 5.8 - Partly cloudy 10 - - - -
 
Date/Time
EST
Temp
°C
Wind Pressure Rain since
9am
mm
Weather Cloud Vis
km
Sea
Height
m
Swell
Dir  Spd
kts
Gust
kts
hPa Trend Height
m
Period
s
Dir
28/11:30pm 18.8 SE 6 11 1013.7 - 5.8 - Partly cloudy 10 - - - -
28/11:00pm 19.6 ESE 7 15 1013.9 - 5.8 - Partly cloudy 10 - - - -
28/10:30pm 19.3 SE 5 13 1013.9 - 5.8 - Cloudy 10 - - - -
28/10:00pm 19.5 SSE 10 13 1013.9 - 5.8 - Cloudy 10 - - - -
28/09:30pm 19.8 W 7 10 1013.8 - 5.8 - Cloudy 10 - - - -
28/09:00pm 19.7 E 5 9 1014.0 - 5.8 - Partly cloudy 10 - - - -
28/08:30pm 19.5 S 5 12 1013.8 - 5.8 - Cloudy 10 - - - -
28/08:00pm 19.5 SSW 7 13 1013.8 - 5.8 - Partly cloudy 10 - - - -
28/07:30pm 19.7 ESE 8 30 1013.6 - 5.8 - Partly cloudy 10 - - - -
28/07:00pm 19.6 ESE 6 13 1013.5 - 5.8 - Partly cloudy 10 - - - -
28/06:30pm 19.4 SE 8 18 1013.3 - 5.8 - Cloudy 10 - - - -
28/06:00pm 19.3 SE 7 15 1013.1 - 5.8 - Partly cloudy 10 - - - -
28/05:54pm 18.7 ESE 5 7 1012.9 - 5.8 - Partly cloudy 10 - - - -
28/05:52pm 19.0 ESE 4 7 1012.7 - 5.8 - Partly cloudy 10 - - - -
28/05:35pm 18.7 SSE 7 16 1012.8 - 5.8 - Partly cloudy 5 - - - -
28/05:30pm 18.4 S 7 16 1012.8 - 5.6 - Cloudy 6 - - - -
28/05:28pm 18.6 SSE 8 16 1012.9 - 5.6 - Partly cloudy 6 - - - -
28/05:23pm 18.2 SE 9 16 1012.9 - 5.4 - Partly cloudy 8 - - - -
28/05:13pm 18.7 SE 7 16 1012.6 - 5.0 - Partly cloudy 10 - - - -
28/05:00pm 18.2 ESE 10 20 1012.6 - 5.0 - Partly cloudy 4 - - - -
28/04:50pm 18.3 ESE 9 16 1012.6 - 3.8 - Partly cloudy 3 - - - -
28/04:44pm 19.3 SE 9 13 1012.2 - 0.4 - Partly cloudy 6 - - - -
28/04:30pm 20.5 S 9 13 1012.1 - 0.0 - Partly cloudy 10 - - - -
28/04:26pm 20.4 E 12 23 1011.8 - 0.0 - Partly cloudy 10 - - - -
28/04:00pm 20.4 SSE 11 18 1012.0 - 0.0 - Partly cloudy 10 - - - -
28/03:30pm 20.5 SE 9 16 1011.6 - 0.0 - Mostly clear 10 - - - -
28/03:00pm 20.8 SE 7 15 1011.5 - 0.0 - Mostly clear 10 - - - -
28/02:30pm 20.9 ESE 8 11 1011.3 - 0.0 - Cloudy 10 - - - -
28/02:00pm 21.3 S 6 18 1011.5 - 0.0 - Mostly clear 10 - - - -
28/01:30pm 21.9 E 7 16 1011.4 - 0.0 - Mostly clear 10 - - - -
28/01:00pm 22.3 S 5 11 1011.2 - 0.0 - Mostly clear 10 - - - -
28/12:30pm 21.3 ESE 8 13 1011.2 - 0.0 - Partly cloudy 10 - - - -
28/12:00pm 21.8 ESE 8 14 1011.5 - 0.0 - Partly cloudy 10 - - - -
28/11:30am 22.5 E 10 17 1012.0 - 0.0 - Cloudy 10 - - - -
28/11:00am 23.5 ESE 9 14 1012.4 - 0.0 - Mostly clear 10 - - - -
28/10:30am 23.0 ESE 10 18 1012.8 - 0.0 - Mostly clear 10 - - - -
28/10:00am 22.4 E 9 15 1013.0 - 0.0 - Mostly clear 10 - - - -
28/09:30am 21.8 E 10 13 1012.8 - 0.0 - Partly cloudy 10 - - - -
28/09:00am 22.2 E 9 14 1012.7 - 0.0 - Mostly clear 10 - - - -
28/08:30am 22.3 ESE 7 11 1012.4 - 0.0 - Cloudy 10 - - - -
28/08:00am 21.9 SE 6 12 1012.1 - 0.0 - Partly cloudy 10 - - - -
28/07:30am 21.5 ESE 5 9 1012.5 - 0.0 - Partly cloudy 10 - - - -
28/07:00am 20.9 E 5 6 1012.3 - 0.0 - Partly cloudy 10 - - - -
28/06:30am 18.6 SSE 3 5 1011.7 - 0.0 - Partly cloudy 10 - - - -
28/06:00am 18.5 SSE 3 5 1011.4 - 0.0 - Partly cloudy 10 - - - -
28/05:30am 17.1 E 1 3 1010.9 - 0.0 - Cloudy 10 - - - -
28/05:00am 16.9 CALM 0 0 1010.8 - 0.0 - - 10 - - - -
28/04:30am 18.4 ESE 3 6 1009.9 - 0.0 - - 10 - - - -
28/04:00am 18.2 S 2 3 1010.0 - 0.0 - Partly cloudy 10 - - - -
28/03:30am 19.0 ESE 4 5 1010.0 - 0.0 - - 10 - - - -
28/03:00am 18.8 S 4 7 1009.5 - 0.0 - - 10 - - - -
28/02:30am 17.6 ESE 3 5 1010.1 - 0.0 - - 10 - - - -
28/02:00am 19.0 SSW 5 7 1009.9 - 0.0 - - 10 - - - -
28/01:30am 17.9 S 4 6 1009.9 - 0.0 - - 10 - - - -
28/01:00am 17.2 CALM 0 4 1010.7 - 0.0 - - 10 - - - -
28/12:30am 18.7 SSW 6 7 1010.7 - 0.0 - - 10 - - - -
28/12:00am 18.0 N 2 4 1011.2 - 0.0 - Partly cloudy 10 - - - -
 
Date/Time
EST
Temp
°C
Wind Pressure Rain since
9am
mm
Weather Cloud Vis
km
Sea
Height
m
Swell
Dir  Spd
kts
Gust
kts
hPa Trend Height
m
Period
s
Dir
27/11:30pm 18.5 SW 3 5 1011.7 - 0.0 - Mostly clear 10 - - - -
27/11:00pm 18.3 CALM 0 0 1011.8 - 0.0 - Partly cloudy 10 - - - -
27/10:30pm 18.5 N 3 5 1012.0 - 0.0 - Partly cloudy 10 - - - -
27/10:00pm 18.4 NNE 2 4 1012.0 - 0.0 - Partly cloudy 10 - - - -
27/09:30pm 19.1 NW 5 8 1011.7 - 0.0 - Partly cloudy 10 - - - -
27/09:00pm 18.7 WNW 4 6 1011.9 - 0.0 - Partly cloudy 10 - - - -
27/08:30pm 18.3 NW 3 4 1011.8 - 0.0 - Mostly clear 10 - - - -
27/08:00pm 18.5 NW 2 4 1011.6 - 0.0 - Partly cloudy 10 - - - -
27/07:30pm 19.0 WNW 3 5 1011.5 - 0.0 - Partly cloudy 10 - - - -
27/07:00pm 18.8 WNW 4 6 1011.3 - 0.0 - Partly cloudy 10 - - - -
27/06:30pm 18.4 NW 3 5 1011.1 - 0.0 - - 10 - - - -
27/06:00pm 20.0 W 8 10 1010.8 - 0.0 - Partly cloudy 10 - - - -
27/05:30pm 19.9 W 9 12 1010.4 - 0.0 - - 10 - - - -
27/05:00pm 20.0 W 11 13 1010.1 - 0.0 - - 10 - - - -
27/04:30pm 20.2 W 11 15 1009.9 - 0.0 - - 10 - - - -
27/04:00pm 20.7 W 13 16 1009.6 - 0.0 - - 10 - - - -
27/03:30pm 21.0 W 14 17 1009.7 - 0.0 - - 10 - - - -
27/03:00pm 21.2 W 15 18 1009.4 - 0.0 - - 10 - - - -
27/02:30pm 21.7 W 15 18 1009.2 - 0.0 - Mostly clear 10 - - - -
27/02:00pm 22.0 W 14 18 1009.1 - 0.0 - Mostly clear 10 - - - -
27/01:30pm 22.1 W 15 19 1009.2 - 0.0 - Mostly clear 10 - - - -
27/01:00pm 22.4 W 13 18 1009.2 - 0.0 - Mostly clear 10 - - - -
27/12:30pm 22.5 W 13 17 1009.5 - 0.0 - Mostly clear 10 - - - -
27/12:00pm 22.8 W 12 17 1009.8 - 0.0 - Mostly clear 10 - - - -
27/11:30am 22.4 W 13 17 1010.1 - 0.0 - Mostly clear 10 - - - -
27/11:00am 22.2 W 13 17 1010.2 - 0.0 - Mostly clear 10 - - - -
27/10:30am 22.5 W 12 15 1010.3 - 0.0 - - 10 - - - -
27/10:00am 22.3 W 12 14 1010.3 - 0.0 - Mostly clear 10 - - - -
27/09:30am 21.8 W 13 16 1010.3 - 0.0 - Mostly clear 10 - - - -
27/09:00am 21.7 W 13 16 1010.2 - 0.0 - Mostly clear 10 - - - -
27/08:30am 21.5 W 12 15 1010.1 - 20.6 - Mostly clear 10 - - - -
27/08:00am 21.1 W 11 14 1010.0 - 20.6 - Mostly clear 10 - - - -
27/07:30am 20.8 W 11 14 1009.7 - 20.6 - Mostly clear 10 - - - -
27/07:00am 20.6 WSW 12 15 1009.3 - 20.6 - Partly cloudy 10 - - - -
27/06:30am 20.3 W 13 15 1008.9 - 20.6 - Partly cloudy 10 - - - -
27/06:00am 20.0 WSW 13 16 1008.5 - 20.6 - Partly cloudy 10 - - - -
27/05:30am 19.9 W 15 18 1008.3 - 20.6 - Mostly clear 10 - - - -
27/05:00am 19.9 W 14 17 1008.0 - 20.6 - Partly cloudy 10 - - - -
27/04:30am 19.8 WSW 16 19 1007.4 - 20.6 - - 10 - - - -
27/04:00am 19.4 WSW 8 12 1007.3 - 20.6 - Partly cloudy 10 - - - -
27/03:30am 19.5 WSW 12 18 1007.6 - 20.6 - Partly cloudy 10 - - - -
27/03:00am 19.6 SW 15 22 1007.5 - 20.6 - Partly cloudy 10 - - - -
27/02:30am 19.2 WSW 19 26 1007.5 - 20.6 - Cloudy 10 - - - -
27/02:23am 19.4 WSW 15 26 1007.4 - 20.6 - Partly cloudy 10 - - - -
27/02:00am 18.5 WSW 11 14 1007.6 - 20.6 - Partly cloudy 10 - - - -
27/01:30am 18.0 WSW 11 16 1007.6 - 20.6 - Cloudy 10 - - - -
27/01:10am 17.5 WSW 14 18 1008.0 - 20.6 - Partly cloudy 8 - - - -
27/01:08am 17.6 WSW 14 18 1008.1 - 20.6 - Partly cloudy 8 - - - -
27/01:00am 17.6 W 15 19 1008.1 - 20.6 - Partly cloudy 7 - - - -
27/12:33am 17.6 WSW 19 25 1008.4 - 18.4 - Partly cloudy 3 - - - -
27/12:30am 17.8 WSW 19 27 1008.3 - 17.6 - Partly cloudy 5 - - - -
27/12:21am 18.0 WSW 25 36 1007.8 - 16.4 - Partly cloudy 6 - - - -
27/12:20am 18.3 W 26 36 1007.7 - 16.2 - Partly cloudy 7 - - - -
27/12:16am 19.2 W 27 36 1007.5 - 16.2 - Partly cloudy 10 - - - -
27/12:00am 21.3 WNW 9 19 1007.3 - 16.2 - Partly cloudy 10 - - - -
 
Date/Time
EST
Temp
°C
Wind Pressure Rain since
9am
mm
Weather Cloud Vis
km
Sea
Height
m
Swell
Dir  Spd
kts
Gust
kts
hPa Trend Height
m
Period
s
Dir
26/11:30pm 20.7 WNW 10 23 1007.7 - 16.0 - Cloudy 10 - - - -
26/11:00pm 20.3 NW 9 19 1008.1 - 15.8 - Partly cloudy 10 - - - -
26/10:53pm 20.0 NW 9 16 1008.1 - 15.8 - Partly cloudy 10 - - - -
26/10:30pm 19.7 NW 7 14 1008.4 - 15.6 - Partly cloudy 10 - - - -
26/10:16pm 19.3 NNW 8 16 1008.4 - 15.6 - Partly cloudy 8 - - - -
26/10:00pm 19.1 NNW 7 22 1008.6 - 15.4 - Partly cloudy 3 - - - -
26/09:35pm 19.6 NW 11 23 1009.2 - 12.2 - Partly cloudy 3 - - - -
26/09:30pm 20.1 NNW 8 18 1008.9 - 11.4 - Partly cloudy 4 - - - -
26/09:11pm 20.3 N 7 12 1008.8 - 8.8 - Partly cloudy 6 - - - -
26/09:03pm 20.5 NNW 7 12 1009.0 - 8.4 - Partly cloudy 10 - - - -
26/09:00pm 20.5 NNW 6 12 1008.9 - 8.4 - Partly cloudy 10 - - - -
26/08:36pm 20.3 N 7 12 1009.0 - 7.0 - Partly cloudy 6 - - - -
26/08:33pm 20.3 NNW 7 13 1008.8 - 6.8 - Partly cloudy 7 - - - -
26/08:30pm 20.3 NNW 9 16 1008.9 - 6.6 - Cloudy 8 - - - -
26/08:22pm 20.5 NW 9 17 1009.3 - 5.8 - Partly cloudy 6 - - - -
26/08:00pm 21.1 NW 8 15 1009.4 - 3.8 - Partly cloudy 5 - - - -
26/07:42pm 21.4 WNW 10 20 1009.6 - 2.0 - Partly cloudy 6 - - - -
26/07:34pm 21.5 NNW 12 21 1009.5 - 1.2 - Partly cloudy 8 - - - -
26/07:30pm 21.5 N 13 21 1009.5 - 1.0 - Partly cloudy 10 - - - -
26/07:00pm 21.7 NNW 7 14 1009.0 - 0.2 - Partly cloudy 10 - - - -
26/06:30pm 22.2 N 8 17 1008.8 - 0.2 - Partly cloudy 10 - - - -
26/06:00pm 22.2 N 7 13 1008.5 - 0.2 - Partly cloudy 10 - - - -
26/05:30pm 22.1 N 6 12 1008.4 - 0.2 - Partly cloudy 10 - - - -
26/05:00pm 22.1 N 7 12 1008.4 - 0.2 - - 10 - - - -
26/04:30pm 22.1 N 8 13 1008.5 - 0.2 - Mostly clear 10 - - - -
26/04:00pm 22.2 NNW 8 13 1008.7 - 0.2 - Mostly clear 10 - - - -
26/03:30pm 22.2 N 6 10 1009.0 - 0.2 - Mostly clear 10 - - - -
26/03:00pm 22.3 NNW 6 11 1009.2 - 0.2 - Mostly clear 10 - - - -
26/02:30pm 22.6 N 7 11 1009.2 - 0.2 - Mostly clear 10 - - - -
26/02:09pm 22.6 NNW 8 15 1009.7 - 0.2 - Partly cloudy 10 - - - -
26/02:00pm 23.3 NNW 7 11 1009.6 - 0.2 - Partly cloudy 10 - - - -
26/01:51pm 22.9 NNW 5 8 1009.6 - 0.2 - Partly cloudy 10 - - - -
26/01:30pm 22.8 NW 7 15 1010.1 - 0.2 - Mostly clear 10 - - - -
26/01:00pm 23.1 NNW 7 13 1010.4 - 0.2 - Mostly clear 10 - - - -
26/12:30pm 23.0 N 8 13 1011.0 - 0.2 - Mostly clear 10 - - - -
26/12:00pm 23.7 N 9 17 1011.6 - 0.2 - Mostly clear 10 - - - -
26/11:30am 24.2 N 6 12 1012.2 - 0.2 - Mostly clear 10 - - - -
26/11:00am 23.8 N 8 14 1012.6 - 0.2 - Partly cloudy 10 - - - -
26/10:30am 24.0 NW 8 14 1013.2 - 0.2 - Mostly clear 10 - - - -
26/10:00am 24.0 NNW 8 13 1013.7 - 0.2 - Partly cloudy 10 - - - -
26/09:30am 23.9 NNW 7 16 1013.9 - 0.0 - Mostly clear 10 - - - -
26/09:00am 23.9 NE 5 8 1014.0 - 0.0 - Mostly clear 10 - - - -
26/08:30am 21.2 NNE 7 11 1014.5 - 5.4 - Partly cloudy 10 - - - -
26/08:00am 21.2 N 7 15 1014.7 - 5.4 - Mostly clear 10 - - - -
26/07:30am 22.2 NNE 9 15 1014.6 - 5.4 - Mostly clear 10 - - - -
26/07:00am 22.0 N 9 15 1014.5 - 5.4 - Partly cloudy 10 - - - -
26/06:45am 22.1 N 10 18 1014.1 - 5.4 - Partly cloudy 10 - - - -
26/06:30am 22.0 N 9 14 1014.1 - 5.4 - Partly cloudy 10 - - - -
26/06:24am 22.1 N 9 14 1013.9 - 5.4 - Partly cloudy 10 - - - -
26/06:00am 21.9 NNE 14 24 1013.8 - 5.4 - Partly cloudy 10 - - - -
26/05:30am 21.8 NNE 11 20 1013.7 - 5.4 - Mostly clear 10 - - - -
26/05:00am 21.7 NNE 12 21 1013.5 - 5.4 - Partly cloudy 10 - - - -
26/04:30am 21.7 NNE 10 17 1013.7 - 5.4 - Partly cloudy 10 - - - -
26/04:00am 21.5 NNE 11 18 1013.8 - 5.4 - Partly cloudy 10 - - - -
26/03:30am 21.7 N 10 19 1014.3 - 5.4 - Partly cloudy 10 - - - -

Other Formats:

Comma delimited format used in spreadsheet applications
http://www.bom.gov.au/fwo/IDN60701/IDN60701.94995.axf

JavaScript Object Notation format (JSON) in row-major order
http://www.bom.gov.au/fwo/IDN60701/IDN60701.94995.json